createdAt,value
2019-05-20T00:01:48.941Z,9.10
2019-05-20T00:04:18.971Z,11.18
2019-05-20T00:06:49.479Z,11.15
2019-05-20T00:09:20.246Z,10.68
2019-05-20T00:11:50.127Z,8.60
2019-05-20T00:14:19.756Z,8.70
2019-05-20T00:16:49.542Z,12.40
2019-05-20T00:19:19.337Z,8.93
2019-05-20T00:21:50.252Z,9.85
2019-05-20T00:24:20.714Z,8.68
2019-05-20T00:26:50.750Z,9.13
2019-05-20T00:29:21.677Z,8.80
2019-05-20T00:31:52.404Z,9.20
2019-05-20T00:34:34.586Z,8.58
2019-05-20T00:36:55.006Z,9.63
2019-05-20T00:39:24.362Z,10.50
2019-05-20T00:41:54.351Z,8.68
2019-05-20T00:44:24.849Z,10.32
2019-05-20T00:46:54.727Z,10.20
2019-05-20T00:49:25.014Z,10.05
2019-05-20T00:51:56.318Z,8.00
2019-05-20T00:54:25.932Z,7.67
2019-05-20T00:56:55.638Z,8.95
2019-05-20T00:59:25.417Z,7.25
2019-05-20T01:01:55.244Z,7.10
2019-05-20T01:04:25.810Z,10.88
2019-05-20T01:06:55.778Z,6.17
2019-05-20T01:09:26.288Z,7.50
2019-05-20T01:11:55.935Z,7.97
2019-05-20T01:14:25.543Z,7.83
2019-05-20T01:16:55.480Z,7.28
2019-05-20T01:19:25.142Z,7.87
2019-05-20T01:21:54.969Z,8.80
2019-05-20T01:24:24.968Z,6.97
2019-05-20T01:26:54.572Z,7.35
2019-05-20T01:29:25.099Z,7.87
2019-05-20T01:31:54.401Z,7.17
2019-05-20T01:34:24.295Z,7.87
2019-05-20T01:36:54.774Z,8.65
2019-05-20T01:39:25.083Z,7.97
2019-05-20T01:41:55.017Z,9.20
2019-05-20T01:44:25.256Z,7.97
2019-05-20T01:46:55.136Z,9.75
2019-05-20T01:49:24.718Z,7.75
2019-05-20T01:51:55.064Z,9.73
2019-05-20T01:54:24.940Z,8.73
2019-05-20T01:56:54.924Z,12.15
2019-05-20T01:59:24.558Z,10.28
2019-05-20T02:01:54.824Z,9.05
2019-05-20T02:04:24.686Z,8.40
2019-05-20T02:06:54.966Z,9.20
2019-05-20T02:09:24.810Z,6.92
2019-05-20T02:11:55.726Z,6.65
2019-05-20T02:14:28.061Z,7.05
2019-05-20T02:16:57.650Z,9.03
2019-05-20T02:19:27.981Z,6.25
2019-05-20T02:21:57.950Z,5.97
2019-05-20T02:24:27.798Z,9.80
2019-05-20T02:26:58.042Z,5.65
2019-05-20T02:29:28.396Z,5.37
2019-05-20T02:31:58.355Z,5.37
2019-05-20T02:34:28.291Z,5.20
2019-05-20T02:36:58.155Z,5.95
2019-05-20T02:39:28.091Z,4.70
2019-05-20T02:41:58.095Z,4.90
2019-05-20T02:44:28.017Z,2.65
2019-05-20T02:46:58.608Z,2.60
2019-05-20T02:49:29.000Z,1.92
2019-05-20T02:51:58.615Z,2.00
2019-05-20T02:54:28.551Z,2.10
2019-05-20T02:56:58.772Z,2.98
2019-05-20T02:59:28.637Z,2.85
2019-05-20T03:01:58.349Z,1.90
2019-05-20T03:04:27.955Z,4.10
2019-05-20T03:06:57.571Z,1.45
2019-05-20T03:09:27.597Z,1.65
2019-05-20T03:11:56.925Z,1.40
2019-05-20T03:14:26.833Z,1.75
2019-05-20T03:16:56.632Z,1.92
2019-05-20T03:19:26.221Z,2.08
2019-05-20T03:21:56.232Z,1.55
2019-05-20T03:24:26.519Z,2.67
2019-05-20T03:26:56.687Z,1.72
2019-05-20T03:29:26.279Z,2.00
2019-05-20T03:31:55.880Z,1.72
2019-05-20T03:34:45.017Z,2.08
2019-05-20T03:36:57.706Z,1.87
2019-05-20T03:39:27.617Z,2.37
2019-05-20T03:41:57.543Z,2.05
2019-05-20T03:44:27.431Z,1.60
2019-05-20T03:46:57.151Z,2.77
2019-05-20T03:49:26.729Z,3.08
2019-05-20T03:51:56.653Z,2.10
2019-05-20T03:54:26.567Z,2.70
2019-05-20T03:56:56.776Z,1.87
2019-05-20T03:59:27.127Z,2.25
2019-05-20T04:01:56.754Z,5.37
2019-05-20T04:04:26.692Z,2.62
2019-05-20T04:06:56.593Z,2.98
2019-05-20T04:09:26.873Z,2.65
2019-05-20T04:11:57.156Z,2.35
2019-05-20T04:14:27.394Z,2.62
2019-05-20T04:16:57.352Z,2.50
2019-05-20T04:19:27.592Z,2.75
2019-05-20T04:21:57.846Z,2.27
2019-05-20T04:24:27.519Z,2.30
2019-05-20T04:27:01.303Z,3.58
2019-05-20T04:29:32.064Z,1.80
2019-05-20T04:32:01.356Z,2.12
2019-05-20T04:34:31.054Z,2.55
2019-05-20T04:37:01.381Z,2.22
2019-05-20T04:39:31.413Z,2.25
2019-05-20T04:42:05.991Z,3.72
2019-05-20T04:44:33.765Z,3.08
2019-05-20T04:47:03.784Z,2.05
2019-05-20T04:49:33.709Z,2.50
2019-05-20T04:52:03.351Z,2.72
2019-05-20T04:54:33.582Z,2.40
2019-05-20T04:57:03.531Z,2.65
2019-05-20T04:59:33.856Z,3.55
2019-05-20T05:02:04.133Z,2.25
2019-05-20T05:04:34.378Z,2.45
2019-05-20T05:07:04.343Z,2.60
2019-05-20T05:09:34.542Z,2.72
2019-05-20T05:12:04.453Z,2.50
2019-05-20T05:14:34.693Z,3.05
2019-05-20T05:17:04.961Z,2.83
2019-05-20T05:19:34.948Z,4.72
2019-05-20T05:22:05.272Z,2.90
2019-05-20T05:24:35.278Z,3.20
2019-05-20T05:27:05.205Z,4.28
2019-05-20T05:29:35.444Z,4.58
2019-05-20T05:32:05.696Z,3.05
2019-05-20T05:34:36.424Z,4.40
2019-05-20T05:37:06.762Z,3.65
2019-05-20T05:39:36.672Z,4.03
2019-05-20T05:42:06.783Z,4.37
2019-05-20T05:44:36.687Z,4.78
2019-05-20T05:47:06.256Z,6.42
2019-05-20T05:49:35.940Z,5.33
2019-05-20T05:52:06.285Z,6.42
2019-05-20T05:54:36.862Z,5.00
2019-05-20T05:57:07.019Z,4.30
2019-05-20T05:59:36.658Z,4.85
2019-05-20T06:02:06.903Z,6.53
2019-05-20T06:04:36.503Z,4.05
2019-05-20T06:07:08.122Z,4.62
2019-05-20T06:09:38.106Z,5.87
2019-05-20T06:12:08.096Z,4.33
2019-05-20T06:14:38.466Z,4.45
2019-05-20T06:17:08.664Z,4.70
2019-05-20T06:19:39.230Z,5.00
2019-05-20T06:22:09.217Z,4.05
2019-05-20T06:24:38.833Z,5.65
2019-05-20T06:27:08.698Z,5.22
2019-05-20T06:29:38.996Z,5.78
2019-05-20T06:32:08.680Z,5.08
2019-05-20T06:34:41.984Z,5.00
2019-05-20T06:37:12.612Z,5.10
2019-05-20T06:39:43.210Z,5.37
2019-05-20T06:42:13.589Z,7.85
2019-05-20T06:44:52.245Z,5.85
2019-05-20T06:47:14.549Z,7.40
2019-05-20T06:49:45.171Z,6.80
2019-05-20T06:52:15.431Z,6.17
2019-05-20T06:54:45.635Z,6.85
2019-05-20T06:57:16.103Z,7.15
2019-05-20T06:59:46.342Z,9.00
2019-05-20T07:02:16.276Z,8.40
2019-05-20T07:04:46.501Z,8.30
2019-05-20T07:07:20.848Z,9.38
2019-05-20T07:09:48.711Z,8.75
2019-05-20T07:12:18.663Z,9.55
2019-05-20T07:14:48.539Z,11.28
2019-05-20T07:17:18.491Z,11.30
2019-05-20T07:19:49.049Z,12.65
2019-05-20T07:22:19.257Z,10.90
2019-05-20T07:24:49.532Z,10.68
2019-05-20T07:27:19.235Z,12.55
2019-05-20T07:29:48.828Z,13.25
2019-05-20T07:32:19.070Z,11.80
2019-05-20T07:34:48.725Z,11.15
2019-05-20T07:37:18.680Z,10.63
2019-05-20T07:39:48.943Z,14.23
2019-05-20T07:42:18.549Z,11.45
2019-05-20T07:44:48.452Z,11.18
2019-05-20T07:47:18.348Z,14.50
2019-05-20T07:49:49.370Z,14.03
2019-05-20T07:52:23.311Z,13.32
2019-05-20T07:54:55.179Z,12.98
2019-05-20T07:57:28.340Z,15.38
2019-05-20T07:59:58.469Z,12.43
2019-05-20T08:02:28.780Z,14.38
2019-05-20T08:04:59.039Z,15.85
2019-05-20T08:07:49.974Z,14.98
2019-05-20T08:10:00.934Z,12.47
2019-05-20T08:12:31.139Z,13.25
2019-05-20T08:15:01.363Z,13.60
2019-05-20T08:17:31.951Z,14.38
2019-05-20T08:20:02.071Z,13.88
2019-05-20T08:22:32.820Z,14.33
2019-05-20T08:25:03.467Z,12.05
2019-05-20T08:27:33.449Z,12.07
2019-05-20T08:30:03.369Z,12.20
2019-05-20T08:32:33.020Z,12.20
2019-05-20T08:35:02.948Z,13.20
2019-05-20T08:37:44.804Z,14.73
2019-05-20T08:40:05.552Z,15.55
2019-05-20T08:42:35.833Z,14.58
2019-05-20T08:45:06.189Z,12.88
2019-05-20T08:47:36.388Z,14.80
2019-05-20T08:50:13.283Z,13.83
2019-05-20T08:52:39.785Z,14.47
2019-05-20T08:55:09.997Z,15.30
2019-05-20T08:57:40.823Z,14.35
2019-05-20T09:00:22.103Z,16.75
2019-05-20T09:02:48.469Z,13.83
2019-05-20T09:05:18.670Z,17.20
2019-05-20T09:08:02.451Z,19.02
2019-05-20T09:10:20.682Z,20.17
2019-05-20T09:12:50.885Z,16.87
2019-05-20T09:15:21.188Z,20.40
2019-05-20T09:17:51.238Z,22.45
2019-05-20T09:20:21.699Z,24.82
2019-05-20T09:22:51.418Z,21.27
2019-05-20T09:25:30.389Z,21.73
2019-05-20T09:28:00.764Z,27.40
2019-05-20T09:30:32.843Z,22.90
2019-05-20T09:33:03.173Z,25.65
2019-05-20T09:35:33.400Z,24.15
2019-05-20T09:38:17.680Z,24.65
2019-05-20T09:40:47.512Z,24.15
2019-05-20T09:43:18.727Z,23.55
2019-05-20T09:46:04.166Z,22.40
2019-05-20T09:48:24.702Z,21.90
2019-05-20T09:50:52.569Z,21.48
2019-05-20T09:53:23.247Z,23.67
2019-05-20T09:55:53.663Z,23.45
2019-05-20T09:58:23.725Z,24.25
2019-05-20T10:00:54.272Z,25.27
2019-05-20T10:03:25.868Z,22.40
2019-05-20T10:05:55.807Z,25.17
2019-05-20T10:08:37.533Z,24.95
2019-05-20T10:10:59.720Z,25.00
2019-05-20T10:13:31.420Z,24.35
2019-05-20T10:16:01.808Z,22.75
2019-05-20T10:18:37.509Z,27.93
2019-05-20T10:21:03.993Z,23.95
2019-05-20T10:23:35.919Z,27.50
2019-05-20T10:26:05.968Z,27.15
2019-05-20T10:28:35.971Z,26.00
2019-05-20T10:31:05.596Z,28.85
2019-05-20T10:33:37.121Z,26.23
2019-05-20T10:36:07.633Z,25.65
2019-05-20T10:38:54.699Z,29.45
2019-05-20T10:41:09.739Z,26.97
2019-05-20T10:43:39.393Z,28.05
2019-05-20T10:46:09.263Z,31.52
2019-05-20T10:48:39.477Z,28.50
2019-05-20T10:51:10.570Z,35.95
2019-05-20T10:53:40.893Z,30.85
2019-05-20T10:56:11.014Z,30.55
2019-05-20T10:58:41.771Z,35.30
2019-05-20T11:01:11.506Z,35.85
2019-05-20T11:03:41.483Z,36.10
2019-05-20T11:06:12.076Z,38.33
2019-05-20T11:08:42.211Z,43.23
2019-05-20T11:11:14.404Z,37.42
2019-05-20T11:13:44.393Z,38.70
2019-05-20T11:16:14.399Z,43.20
2019-05-20T11:18:44.692Z,48.40
2019-05-20T11:21:14.995Z,45.92
2019-05-20T11:23:44.633Z,40.58
2019-05-20T11:26:14.936Z,42.35
2019-05-20T11:28:44.596Z,43.95
2019-05-20T11:31:14.529Z,41.88
2019-05-20T11:33:43.812Z,40.73
2019-05-20T11:36:13.767Z,44.42
2019-05-20T11:38:44.057Z,42.65
2019-05-20T11:41:13.963Z,44.35
2019-05-20T11:43:43.972Z,47.33
2019-05-20T11:46:13.865Z,50.43
2019-05-20T11:48:44.115Z,47.45
2019-05-20T11:51:13.673Z,46.95
2019-05-20T11:53:43.923Z,52.43
2019-05-20T11:56:14.417Z,53.15
2019-05-20T11:58:44.115Z,49.30
2019-05-20T12:01:13.983Z,56.77
2019-05-20T12:03:44.625Z,51.75
2019-05-20T12:06:14.926Z,53.08
2019-05-20T12:08:44.942Z,47.90
2019-05-20T12:11:15.216Z,48.20
2019-05-20T12:13:45.735Z,46.33
2019-05-20T12:16:16.294Z,51.75
2019-05-20T12:18:46.505Z,54.83
2019-05-20T12:21:16.521Z,49.50
2019-05-20T12:23:46.126Z,45.98
2019-05-20T12:26:16.080Z,40.48
2019-05-20T12:28:45.876Z,41.75
2019-05-20T12:31:16.173Z,43.28
2019-05-20T12:33:46.105Z,43.05
2019-05-20T12:36:16.407Z,42.00
2019-05-20T12:38:46.721Z,50.35
2019-05-20T12:41:16.125Z,52.67
2019-05-20T12:43:46.473Z,51.08
2019-05-20T12:46:16.737Z,50.38
2019-05-20T12:48:46.753Z,52.40
2019-05-20T12:51:17.102Z,52.43
2019-05-20T12:53:47.596Z,53.45
2019-05-20T12:56:20.370Z,53.38
2019-05-20T12:58:50.764Z,52.80
2019-05-20T13:01:21.283Z,57.43
2019-05-20T13:03:51.250Z,53.60
2019-05-20T13:06:26.243Z,57.15
2019-05-20T13:08:56.752Z,50.98
2019-05-20T13:11:27.239Z,51.58
2019-05-20T13:13:56.664Z,46.48
2019-05-20T13:16:26.706Z,47.33
2019-05-20T13:18:56.707Z,45.30
2019-05-20T13:21:27.108Z,43.92
2019-05-20T13:23:57.500Z,43.05
2019-05-20T13:26:27.880Z,44.88
2019-05-20T13:28:59.742Z,42.35
2019-05-20T13:31:30.501Z,43.15
2019-05-20T13:34:01.205Z,46.90
2019-05-20T13:36:31.498Z,48.80
2019-05-20T13:39:01.536Z,46.55
2019-05-20T13:41:31.851Z,55.67
2019-05-20T13:44:01.222Z,52.62
2019-05-20T13:46:30.902Z,46.53
2019-05-20T13:49:01.555Z,48.78
2019-05-20T13:51:32.179Z,48.98
2019-05-20T13:54:03.196Z,48.30
2019-05-20T13:56:32.825Z,44.33
2019-05-20T13:59:03.268Z,58.45
2019-05-20T14:01:35.397Z,57.03
2019-05-20T14:04:05.055Z,42.80
2019-05-20T14:06:35.311Z,43.33
2019-05-20T14:09:07.691Z,47.30
2019-05-20T14:11:38.310Z,42.95
2019-05-20T14:14:08.614Z,45.00
2019-05-20T14:16:38.258Z,42.40
2019-05-20T14:19:08.553Z,43.75
2019-05-20T14:21:38.797Z,45.33
2019-05-20T14:24:09.184Z,44.23
2019-05-20T14:26:39.482Z,43.98
2019-05-20T14:29:09.698Z,43.30
2019-05-20T14:31:39.975Z,42.62
2019-05-20T14:34:10.384Z,46.00
2019-05-20T14:36:40.608Z,46.68
2019-05-20T14:39:10.665Z,46.28
2019-05-20T14:41:41.308Z,41.25
2019-05-20T14:44:11.617Z,46.95
2019-05-20T14:46:41.901Z,43.40
2019-05-20T14:49:12.525Z,43.98
2019-05-20T14:51:42.841Z,50.38
2019-05-20T14:54:13.063Z,50.03
2019-05-20T14:56:43.110Z,45.83
2019-05-20T14:59:13.480Z,43.00
2019-05-20T15:01:43.761Z,46.48
2019-05-20T15:04:14.082Z,42.75
2019-05-20T15:06:44.142Z,41.60
2019-05-20T15:09:14.394Z,43.78
2019-05-20T15:11:44.442Z,49.10
2019-05-20T15:14:14.764Z,46.68
2019-05-20T15:16:44.120Z,43.28
2019-05-20T15:19:14.199Z,49.95
2019-05-20T15:21:44.840Z,46.50
2019-05-20T15:24:14.902Z,46.48
2019-05-20T15:26:44.723Z,44.88
2019-05-20T15:29:27.655Z,43.83
2019-05-20T15:31:46.693Z,44.15
2019-05-20T15:34:17.397Z,42.78
2019-05-20T15:36:47.119Z,45.67
2019-05-20T15:39:17.422Z,49.35
2019-05-20T15:41:47.370Z,50.92
2019-05-20T15:44:17.055Z,49.53
2019-05-20T15:46:46.707Z,48.15
2019-05-20T15:49:17.397Z,44.77
2019-05-20T15:51:47.651Z,44.05
2019-05-20T15:54:17.885Z,52.45
2019-05-20T15:56:47.841Z,48.48
2019-05-20T15:59:18.168Z,56.42
2019-05-20T16:01:47.483Z,48.48
2019-05-20T16:04:17.783Z,52.20
2019-05-20T16:06:47.779Z,52.43
2019-05-20T16:09:18.039Z,53.95
2019-05-20T16:11:48.057Z,58.42
2019-05-20T16:14:18.019Z,59.80
2019-05-20T16:16:47.979Z,54.77
2019-05-20T16:19:17.426Z,60.78
2019-05-20T16:21:47.980Z,63.73
2019-05-20T16:24:32.911Z,58.92
2019-05-20T16:27:05.474Z,60.88
2019-05-20T16:29:35.529Z,63.15
2019-05-20T16:32:05.769Z,64.60
2019-05-20T16:34:35.678Z,72.08
2019-05-20T16:37:06.293Z,74.05
2019-05-20T16:39:36.340Z,67.80
2019-05-20T16:42:06.612Z,70.37
2019-05-20T16:44:36.627Z,71.45
2019-05-20T16:47:06.636Z,69.82
2019-05-20T16:49:36.335Z,77.70
2019-05-20T16:52:06.467Z,75.15
2019-05-20T16:54:36.147Z,74.37
2019-05-20T16:57:06.733Z,74.60
2019-05-20T16:59:37.047Z,69.35
2019-05-20T17:02:07.363Z,69.17
2019-05-20T17:04:37.543Z,67.42
2019-05-20T17:07:07.275Z,67.42
2019-05-20T17:09:37.142Z,76.97
2019-05-20T17:12:07.462Z,84.92
2019-05-20T17:14:37.208Z,76.40
2019-05-20T17:17:06.918Z,77.25
2019-05-20T17:19:37.406Z,72.85
2019-05-20T17:22:08.031Z,73.45
2019-05-20T17:24:38.066Z,73.17
2019-05-20T17:27:08.293Z,78.17
2019-05-20T17:29:38.346Z,80.60
2019-05-20T17:32:08.507Z,80.65
2019-05-20T17:34:38.598Z,80.77
2019-05-20T17:37:09.235Z,84.25
2019-05-20T17:39:39.657Z,71.57
2019-05-20T17:42:10.424Z,74.80
2019-05-20T17:44:40.419Z,79.20
2019-05-20T17:47:11.032Z,85.45
2019-05-20T17:49:41.205Z,87.97
2019-05-20T17:52:11.249Z,85.47
2019-05-20T17:54:41.979Z,77.92
2019-05-20T17:57:12.458Z,83.87
2019-05-20T17:59:42.504Z,88.95
2019-05-20T18:02:13.262Z,80.85
2019-05-20T18:04:43.314Z,84.62
2019-05-20T18:07:13.603Z,94.17
2019-05-20T18:09:48.111Z,84.35
2019-05-20T18:12:18.164Z,94.58
2019-05-20T18:14:52.337Z,89.52
2019-05-20T18:17:22.611Z,90.50
2019-05-20T18:19:52.624Z,85.72
2019-05-20T18:22:22.922Z,86.28
2019-05-20T18:24:53.295Z,86.45
2019-05-20T18:27:23.778Z,88.55
2019-05-20T18:29:53.583Z,89.55
2019-05-20T18:32:23.377Z,94.28
2019-05-20T18:34:54.931Z,101.27
2019-05-20T18:37:24.747Z,106.72
2019-05-20T18:39:55.406Z,117.03
2019-05-20T18:42:25.713Z,110.10
2019-05-20T18:44:56.033Z,107.52
2019-05-20T18:47:25.761Z,115.45
2019-05-20T18:49:57.089Z,114.37
2019-05-20T18:52:27.491Z,115.85
2019-05-20T18:54:57.517Z,123.95
2019-05-20T18:57:28.158Z,121.15
2019-05-20T18:59:58.613Z,119.15
2019-05-20T19:02:29.373Z,130.43
2019-05-20T19:04:59.540Z,129.87
2019-05-20T19:07:30.667Z,128.72
2019-05-20T19:10:01.245Z,128.55
2019-05-20T19:12:32.318Z,136.37
2019-05-20T19:15:02.429Z,128.82
2019-05-20T19:17:32.430Z,137.00
2019-05-20T19:20:02.517Z,133.97
2019-05-20T19:22:32.321Z,135.60
2019-05-20T19:25:04.838Z,147.82
2019-05-20T19:27:34.868Z,147.80
2019-05-20T19:30:05.812Z,152.45
2019-05-20T19:32:36.576Z,152.22
2019-05-20T19:35:06.647Z,145.45
2019-05-20T19:37:37.100Z,143.62
2019-05-20T19:40:08.254Z,147.50
2019-05-20T19:42:38.992Z,147.98
2019-05-20T19:45:09.509Z,140.35
2019-05-20T19:47:42.677Z,141.62
2019-05-20T19:50:13.914Z,138.52
2019-05-20T19:52:44.725Z,137.95
2019-05-20T19:55:18.462Z,146.72
2019-05-20T19:57:46.797Z,149.45
2019-05-20T20:00:17.526Z,140.77
2019-05-20T20:02:48.679Z,134.80
2019-05-20T20:05:18.396Z,144.70
2019-05-20T20:07:48.542Z,145.60
2019-05-20T20:10:18.817Z,151.53
2019-05-20T20:12:49.745Z,143.10
2019-05-20T20:15:20.286Z,151.50
2019-05-20T20:17:50.294Z,156.35
2019-05-20T20:20:20.785Z,164.28
2019-05-20T20:22:50.986Z,143.75
2019-05-20T20:25:22.250Z,161.45
2019-05-20T20:27:52.349Z,162.05
2019-05-20T20:30:23.046Z,163.37
2019-05-20T20:32:53.502Z,174.23
2019-05-20T20:35:37.299Z,177.22
2019-05-20T20:37:55.886Z,175.03
2019-05-20T20:40:26.048Z,171.22
2019-05-20T20:42:55.849Z,168.95
2019-05-20T20:45:26.275Z,164.22
2019-05-20T20:47:55.672Z,168.72
2019-05-20T20:50:26.735Z,178.60
2019-05-20T20:52:56.664Z,166.03
2019-05-20T20:55:27.699Z,166.95
2019-05-20T20:57:59.444Z,169.87
2019-05-20T21:00:30.063Z,175.97
2019-05-20T21:03:00.549Z,177.00
2019-05-20T21:05:30.296Z,185.45
2019-05-20T21:08:00.812Z,185.20
2019-05-20T21:10:31.334Z,192.07
2019-05-20T21:13:01.210Z,185.20
2019-05-20T21:15:31.556Z,175.12
2019-05-20T21:18:01.545Z,145.50
2019-05-20T21:20:32.026Z,152.45
2019-05-20T21:23:02.457Z,150.32
2019-05-20T21:25:32.711Z,141.45
2019-05-20T21:28:02.530Z,150.80
2019-05-20T21:30:32.263Z,166.32
2019-05-20T21:33:09.207Z,149.72
2019-05-20T21:35:34.654Z,159.37
2019-05-20T21:38:04.179Z,152.43
2019-05-20T21:40:34.669Z,127.00
2019-05-20T21:43:05.133Z,124.07
2019-05-20T21:45:35.220Z,137.95
2019-05-20T21:48:05.199Z,139.68
2019-05-20T21:50:35.533Z,126.18
2019-05-20T21:53:05.291Z,130.05
2019-05-20T21:55:35.396Z,141.45
2019-05-20T21:58:05.658Z,122.98
2019-05-20T22:00:54.424Z,132.87
2019-05-20T22:03:25.607Z,137.07
2019-05-20T22:05:56.120Z,132.63
2019-05-20T22:08:26.156Z,132.43
2019-05-20T22:10:56.295Z,134.82
2019-05-20T22:13:27.287Z,125.95
2019-05-20T22:15:58.044Z,119.20
2019-05-20T22:18:27.976Z,122.28
2019-05-20T22:20:58.186Z,136.52
2019-05-20T22:23:36.785Z,146.30
2019-05-20T22:26:06.712Z,134.37
2019-05-20T22:28:37.332Z,132.30
2019-05-20T22:31:08.072Z,140.40
2019-05-20T22:33:41.321Z,140.35
2019-05-20T22:36:10.394Z,150.40
2019-05-20T22:38:40.771Z,133.95
2019-05-20T22:41:10.237Z,130.15
2019-05-20T22:43:40.714Z,136.62
2019-05-20T22:46:11.037Z,139.65
2019-05-20T22:48:41.612Z,144.77
2019-05-20T22:51:11.870Z,136.28
2019-05-20T22:53:42.230Z,147.75
2019-05-20T22:56:12.425Z,144.47
2019-05-20T22:58:42.637Z,143.85
2019-05-20T23:01:12.660Z,131.70
2019-05-20T23:03:55.708Z,114.35
2019-05-20T23:06:13.849Z,119.60
2019-05-20T23:08:43.903Z,117.40
2019-05-20T23:11:13.574Z,117.87
2019-05-20T23:13:44.193Z,120.87
2019-05-20T23:16:13.804Z,120.02
2019-05-20T23:18:43.434Z,116.10
2019-05-20T23:21:14.008Z,112.60
2019-05-20T23:23:43.657Z,97.00
2019-05-20T23:26:13.931Z,100.02
2019-05-20T23:28:44.181Z,78.67
2019-05-20T23:31:14.414Z,71.42
2019-05-20T23:33:44.991Z,76.92
2019-05-20T23:36:14.625Z,61.08
2019-05-20T23:38:44.601Z,54.67
2019-05-20T23:41:15.334Z,52.88
2019-05-20T23:43:45.271Z,46.75
2019-05-20T23:46:15.523Z,51.00
2019-05-20T23:48:45.864Z,46.08
2019-05-20T23:51:15.828Z,52.53
2019-05-20T23:53:45.792Z,51.73
2019-05-20T23:56:15.462Z,48.90
2019-05-20T23:58:45.352Z,54.95
